sensor_id;sensor_type;location;lat;lon;timestamp;P1;durP1;ratioP1;P2;durP2;ratioP2
6566;SDS011;3317;43.994;22.878;2023-01-01T00:01:20;350.87;;;203.93;;
6566;SDS011;3317;43.994;22.878;2023-01-01T00:03:48;355.00;;;200.93;;
6566;SDS011;3317;43.994;22.878;2023-01-01T00:06:15;301.10;;;178.60;;
6566;SDS011;3317;43.994;22.878;2023-01-01T00:08:42;342.20;;;194.00;;
6566;SDS011;3317;43.994;22.878;2023-01-01T00:11:09;350.43;;;204.77;;
6566;SDS011;3317;43.994;22.878;2023-01-01T00:13:36;339.40;;;204.40;;
6566;SDS011;3317;43.994;22.878;2023-01-01T00:16:06;315.30;;;187.80;;
6566;SDS011;3317;43.994;22.878;2023-01-01T00:18:34;347.43;;;206.50;;
6566;SDS011;3317;43.994;22.878;2023-01-01T00:21:02;296.23;;;174.63;;
6566;SDS011;3317;43.994;22.878;2023-01-01T00:23:30;309.27;;;174.77;;
6566;SDS011;3317;43.994;22.878;2023-01-01T00:25:57;266.43;;;148.43;;
6566;SDS011;3317;43.994;22.878;2023-01-01T00:28:24;269.47;;;156.47;;
6566;SDS011;3317;43.994;22.878;2023-01-01T00:30:50;266.73;;;153.73;;
6566;SDS011;3317;43.994;22.878;2023-01-01T00:33:19;272.10;;;155.53;;
6566;SDS011;3317;43.994;22.878;2023-01-01T00:35:46;227.43;;;135.00;;
6566;SDS011;3317;43.994;22.878;2023-01-01T00:38:13;217.23;;;132.00;;
6566;SDS011;3317;43.994;22.878;2023-01-01T00:40:39;181.27;;;105.17;;
6566;SDS011;3317;43.994;22.878;2023-01-01T00:43:06;206.07;;;122.10;;
6566;SDS011;3317;43.994;22.878;2023-01-01T00:45:33;180.43;;;106.40;;
6566;SDS011;3317;43.994;22.878;2023-01-01T00:48:00;185.93;;;104.80;;
6566;SDS011;3317;43.994;22.878;2023-01-01T00:50:29;149.77;;;86.97;;
6566;SDS011;3317;43.994;22.878;2023-01-01T00:52:55;128.70;;;75.60;;
6566;SDS011;3317;43.994;22.878;2023-01-01T00:55:22;159.53;;;93.70;;
6566;SDS011;3317;43.994;22.878;2023-01-01T00:57:49;156.27;;;90.23;;
6566;SDS011;3317;43.994;22.878;2023-01-01T01:00:16;123.43;;;73.30;;
6566;SDS011;3317;43.994;22.878;2023-01-01T01:02:44;109.70;;;64.00;;
6566;SDS011;3317;43.994;22.878;2023-01-01T01:05:11;116.23;;;65.53;;
6566;SDS011;3317;43.994;22.878;2023-01-01T01:07:39;117.63;;;70.63;;
6566;SDS011;3317;43.994;22.878;2023-01-01T01:10:07;115.13;;;66.97;;
6566;SDS011;3317;43.994;22.878;2023-01-01T01:12:36;112.43;;;67.23;;
6566;SDS011;3317;43.994;22.878;2023-01-01T01:15:03;108.87;;;64.53;;
6566;SDS011;3317;43.994;22.878;2023-01-01T01:17:32;93.50;;;58.17;;
6566;SDS011;3317;43.994;22.878;2023-01-01T01:19:59;94.80;;;55.57;;
6566;SDS011;3317;43.994;22.878;2023-01-01T01:22:26;90.30;;;55.10;;
6566;SDS011;3317;43.994;22.878;2023-01-01T01:24:55;76.73;;;49.00;;
6566;SDS011;3317;43.994;22.878;2023-01-01T01:27:23;69.70;;;45.20;;
6566;SDS011;3317;43.994;22.878;2023-01-01T01:29:50;72.10;;;45.03;;
6566;SDS011;3317;43.994;22.878;2023-01-01T01:32:17;89.77;;;54.77;;
6566;SDS011;3317;43.994;22.878;2023-01-01T01:34:44;74.23;;;46.20;;
6566;SDS011;3317;43.994;22.878;2023-01-01T01:37:11;80.50;;;50.63;;
6566;SDS011;3317;43.994;22.878;2023-01-01T01:39:38;91.03;;;55.27;;
6566;SDS011;3317;43.994;22.878;2023-01-01T01:42:06;122.17;;;72.57;;
6566;SDS011;3317;43.994;22.878;2023-01-01T01:44:47;144.77;;;87.37;;
6566;SDS011;3317;43.994;22.878;2023-01-01T01:47:16;152.20;;;96.30;;
6566;SDS011;3317;43.994;22.878;2023-01-01T01:49:49;143.33;;;87.73;;
6566;SDS011;3317;43.994;22.878;2023-01-01T01:52:21;182.57;;;105.27;;
6566;SDS011;3317;43.994;22.878;2023-01-01T01:54:48;156.30;;;96.90;;
6566;SDS011;3317;43.994;22.878;2023-01-01T01:57:16;156.07;;;94.13;;
6566;SDS011;3317;43.994;22.878;2023-01-01T01:59:46;154.10;;;93.07;;
6566;SDS011;3317;43.994;22.878;2023-01-01T02:02:17;164.87;;;96.90;;
6566;SDS011;3317;43.994;22.878;2023-01-01T02:04:50;164.80;;;99.53;;
6566;SDS011;3317;43.994;22.878;2023-01-01T02:07:18;153.83;;;95.77;;
6566;SDS011;3317;43.994;22.878;2023-01-01T02:09:47;152.83;;;91.70;;
6566;SDS011;3317;43.994;22.878;2023-01-01T02:12:14;139.90;;;84.13;;
6566;SDS011;3317;43.994;22.878;2023-01-01T02:14:43;131.80;;;78.47;;
6566;SDS011;3317;43.994;22.878;2023-01-01T02:17:11;140.43;;;86.50;;
6566;SDS011;3317;43.994;22.878;2023-01-01T02:19:50;153.10;;;92.93;;
6566;SDS011;3317;43.994;22.878;2023-01-01T02:22:31;147.80;;;90.77;;
6566;SDS011;3317;43.994;22.878;2023-01-01T02:25:14;159.50;;;95.43;;
6566;SDS011;3317;43.994;22.878;2023-01-01T02:27:50;160.20;;;98.57;;
6566;SDS011;3317;43.994;22.878;2023-01-01T02:30:23;153.93;;;94.33;;
6566;SDS011;3317;43.994;22.878;2023-01-01T02:32:56;154.47;;;92.33;;
6566;SDS011;3317;43.994;22.878;2023-01-01T02:35:28;137.60;;;81.90;;
6566;SDS011;3317;43.994;22.878;2023-01-01T02:38:03;153.50;;;92.63;;
6566;SDS011;3317;43.994;22.878;2023-01-01T02:40:33;129.80;;;82.13;;
6566;SDS011;3317;43.994;22.878;2023-01-01T02:43:03;89.50;;;55.53;;
6566;SDS011;3317;43.994;22.878;2023-01-01T02:45:32;85.07;;;52.53;;
6566;SDS011;3317;43.994;22.878;2023-01-01T02:48:02;77.93;;;49.97;;
6566;SDS011;3317;43.994;22.878;2023-01-01T02:50:30;77.50;;;47.07;;
6566;SDS011;3317;43.994;22.878;2023-01-01T02:53:06;63.20;;;41.80;;
6566;SDS011;3317;43.994;22.878;2023-01-01T02:55:46;63.10;;;42.80;;
6566;SDS011;3317;43.994;22.878;2023-01-01T02:58:22;78.13;;;47.30;;
6566;SDS011;3317;43.994;22.878;2023-01-01T03:01:17;83.77;;;51.73;;
6566;SDS011;3317;43.994;22.878;2023-01-01T03:03:54;86.60;;;50.97;;
6566;SDS011;3317;43.994;22.878;2023-01-01T03:06:27;86.27;;;55.17;;
6566;SDS011;3317;43.994;22.878;2023-01-01T03:09:08;87.87;;;54.00;;
6566;SDS011;3317;43.994;22.878;2023-01-01T03:11:42;82.30;;;51.77;;
6566;SDS011;3317;43.994;22.878;2023-01-01T03:14:15;87.50;;;56.57;;
6566;SDS011;3317;43.994;22.878;2023-01-01T03:16:48;91.30;;;55.90;;
6566;SDS011;3317;43.994;22.878;2023-01-01T03:19:18;85.17;;;55.57;;
6566;SDS011;3317;43.994;22.878;2023-01-01T03:21:50;96.30;;;60.70;;
6566;SDS011;3317;43.994;22.878;2023-01-01T03:24:21;92.13;;;57.80;;
6566;SDS011;3317;43.994;22.878;2023-01-01T03:26:53;95.30;;;59.40;;
6566;SDS011;3317;43.994;22.878;2023-01-01T03:29:23;92.43;;;55.33;;
6566;SDS011;3317;43.994;22.878;2023-01-01T03:31:57;76.10;;;49.33;;
6566;SDS011;3317;43.994;22.878;2023-01-01T03:34:27;92.07;;;55.03;;
6566;SDS011;3317;43.994;22.878;2023-01-01T03:36:59;88.27;;;53.07;;
6566;SDS011;3317;43.994;22.878;2023-01-01T03:39:32;68.93;;;44.03;;
6566;SDS011;3317;43.994;22.878;2023-01-01T03:42:03;84.77;;;54.60;;
6566;SDS011;3317;43.994;22.878;2023-01-01T03:44:40;66.07;;;42.50;;
6566;SDS011;3317;43.994;22.878;2023-01-01T03:47:14;95.03;;;57.03;;
6566;SDS011;3317;43.994;22.878;2023-01-01T03:49:42;102.20;;;60.13;;
6566;SDS011;3317;43.994;22.878;2023-01-01T03:55:05;123.50;;;72.00;;
6566;SDS011;3317;43.994;22.878;2023-01-01T03:57:41;122.80;;;71.00;;
6566;SDS011;3317;43.994;22.878;2023-01-01T04:00:11;119.00;;;69.67;;
6566;SDS011;3317;43.994;22.878;2023-01-01T04:02:44;111.33;;;63.43;;
6566;SDS011;3317;43.994;22.878;2023-01-01T04:05:15;105.27;;;61.90;;
6566;SDS011;3317;43.994;22.878;2023-01-01T04:07:44;88.87;;;52.80;;
6566;SDS011;3317;43.994;22.878;2023-01-01T04:10:12;84.33;;;50.87;;
6566;SDS011;3317;43.994;22.878;2023-01-01T04:12:45;83.80;;;50.40;;
6566;SDS011;3317;43.994;22.878;2023-01-01T04:15:14;102.07;;;55.50;;
6566;SDS011;3317;43.994;22.878;2023-01-01T04:17:42;87.17;;;52.00;;
6566;SDS011;3317;43.994;22.878;2023-01-01T04:20:10;75.20;;;49.20;;
6566;SDS011;3317;43.994;22.878;2023-01-01T04:22:37;86.00;;;49.70;;
6566;SDS011;3317;43.994;22.878;2023-01-01T04:25:04;80.90;;;50.30;;
6566;SDS011;3317;43.994;22.878;2023-01-01T04:27:32;85.50;;;51.60;;
6566;SDS011;3317;43.994;22.878;2023-01-01T04:29:59;81.93;;;50.80;;
6566;SDS011;3317;43.994;22.878;2023-01-01T04:32:28;74.47;;;47.37;;
6566;SDS011;3317;43.994;22.878;2023-01-01T04:34:56;83.97;;;49.53;;
6566;SDS011;3317;43.994;22.878;2023-01-01T04:37:23;78.80;;;48.83;;
6566;SDS011;3317;43.994;22.878;2023-01-01T04:39:50;86.13;;;50.70;;
6566;SDS011;3317;43.994;22.878;2023-01-01T04:42:17;85.70;;;49.40;;
6566;SDS011;3317;43.994;22.878;2023-01-01T04:44:44;86.57;;;51.90;;
6566;SDS011;3317;43.994;22.878;2023-01-01T04:47:11;75.67;;;48.37;;
6566;SDS011;3317;43.994;22.878;2023-01-01T04:49:38;74.43;;;46.73;;
6566;SDS011;3317;43.994;22.878;2023-01-01T04:52:07;62.77;;;43.67;;
6566;SDS011;3317;43.994;22.878;2023-01-01T04:54:34;64.60;;;40.87;;
6566;SDS011;3317;43.994;22.878;2023-01-01T04:57:00;66.63;;;39.70;;
6566;SDS011;3317;43.994;22.878;2023-01-01T04:59:28;57.77;;;37.90;;
6566;SDS011;3317;43.994;22.878;2023-01-01T05:01:55;56.00;;;36.13;;
6566;SDS011;3317;43.994;22.878;2023-01-01T05:04:22;56.13;;;37.20;;
6566;SDS011;3317;43.994;22.878;2023-01-01T05:06:49;59.57;;;38.10;;
6566;SDS011;3317;43.994;22.878;2023-01-01T05:09:17;58.40;;;36.63;;
6566;SDS011;3317;43.994;22.878;2023-01-01T05:11:44;48.23;;;32.77;;
6566;SDS011;3317;43.994;22.878;2023-01-01T05:14:11;36.37;;;24.53;;
6566;SDS011;3317;43.994;22.878;2023-01-01T05:16:38;78.10;;;49.53;;
6566;SDS011;3317;43.994;22.878;2023-01-01T05:19:06;62.10;;;39.30;;
6566;SDS011;3317;43.994;22.878;2023-01-01T05:21:35;65.87;;;39.63;;
6566;SDS011;3317;43.994;22.878;2023-01-01T05:24:04;63.03;;;39.63;;
6566;SDS011;3317;43.994;22.878;2023-01-01T05:26:34;52.67;;;33.80;;
6566;SDS011;3317;43.994;22.878;2023-01-01T05:29:03;51.70;;;31.60;;
6566;SDS011;3317;43.994;22.878;2023-01-01T05:31:31;40.77;;;25.97;;
6566;SDS011;3317;43.994;22.878;2023-01-01T05:33:59;52.30;;;32.83;;
6566;SDS011;3317;43.994;22.878;2023-01-01T05:36:26;41.77;;;26.67;;
6566;SDS011;3317;43.994;22.878;2023-01-01T05:38:55;51.40;;;33.87;;
6566;SDS011;3317;43.994;22.878;2023-01-01T05:41:22;58.00;;;39.00;;
6566;SDS011;3317;43.994;22.878;2023-01-01T05:43:51;34.20;;;23.27;;
6566;SDS011;3317;43.994;22.878;2023-01-01T05:46:19;39.90;;;26.00;;
6566;SDS011;3317;43.994;22.878;2023-01-01T05:48:47;60.10;;;37.67;;
6566;SDS011;3317;43.994;22.878;2023-01-01T05:51:15;59.33;;;39.77;;
6566;SDS011;3317;43.994;22.878;2023-01-01T05:53:43;62.07;;;38.60;;
6566;SDS011;3317;43.994;22.878;2023-01-01T05:56:11;54.60;;;35.63;;
6566;SDS011;3317;43.994;22.878;2023-01-01T05:58:39;55.13;;;35.20;;
6566;SDS011;3317;43.994;22.878;2023-01-01T06:01:08;54.23;;;34.97;;
6566;SDS011;3317;43.994;22.878;2023-01-01T06:03:37;61.57;;;37.87;;
6566;SDS011;3317;43.994;22.878;2023-01-01T06:06:04;60.13;;;36.67;;
6566;SDS011;3317;43.994;22.878;2023-01-01T06:08:32;68.90;;;41.90;;
6566;SDS011;3317;43.994;22.878;2023-01-01T06:10:59;67.13;;;41.30;;
6566;SDS011;3317;43.994;22.878;2023-01-01T06:13:27;65.90;;;39.10;;
6566;SDS011;3317;43.994;22.878;2023-01-01T06:15:54;45.90;;;30.10;;
6566;SDS011;3317;43.994;22.878;2023-01-01T06:18:23;50.90;;;33.10;;
6566;SDS011;3317;43.994;22.878;2023-01-01T06:20:51;58.00;;;36.67;;
6566;SDS011;3317;43.994;22.878;2023-01-01T06:23:18;60.30;;;36.03;;
6566;SDS011;3317;43.994;22.878;2023-01-01T06:25:45;61.17;;;37.27;;
6566;SDS011;3317;43.994;22.878;2023-01-01T06:28:12;71.70;;;44.50;;
6566;SDS011;3317;43.994;22.878;2023-01-01T06:30:39;68.37;;;43.40;;
6566;SDS011;3317;43.994;22.878;2023-01-01T06:33:06;69.30;;;43.70;;
6566;SDS011;3317;43.994;22.878;2023-01-01T06:35:34;73.33;;;44.60;;
6566;SDS011;3317;43.994;22.878;2023-01-01T06:38:01;65.67;;;41.57;;
6566;SDS011;3317;43.994;22.878;2023-01-01T06:40:28;62.77;;;39.07;;
6566;SDS011;3317;43.994;22.878;2023-01-01T06:42:55;63.60;;;40.17;;
6566;SDS011;3317;43.994;22.878;2023-01-01T06:45:22;63.57;;;40.60;;
6566;SDS011;3317;43.994;22.878;2023-01-01T06:47:49;67.47;;;42.60;;
6566;SDS011;3317;43.994;22.878;2023-01-01T06:50:16;70.50;;;43.53;;
6566;SDS011;3317;43.994;22.878;2023-01-01T06:52:45;62.23;;;38.13;;
6566;SDS011;3317;43.994;22.878;2023-01-01T06:55:12;70.07;;;43.87;;
6566;SDS011;3317;43.994;22.878;2023-01-01T06:57:39;83.60;;;48.47;;
6566;SDS011;3317;43.994;22.878;2023-01-01T07:00:06;74.90;;;45.17;;
6566;SDS011;3317;43.994;22.878;2023-01-01T07:02:34;68.77;;;43.17;;
6566;SDS011;3317;43.994;22.878;2023-01-01T07:05:01;64.70;;;42.13;;
6566;SDS011;3317;43.994;22.878;2023-01-01T07:07:28;72.03;;;45.27;;
6566;SDS011;3317;43.994;22.878;2023-01-01T07:09:56;59.97;;;37.67;;
6566;SDS011;3317;43.994;22.878;2023-01-01T07:12:23;62.60;;;40.07;;
6566;SDS011;3317;43.994;22.878;2023-01-01T07:14:51;74.40;;;43.93;;
6566;SDS011;3317;43.994;22.878;2023-01-01T07:17:18;72.60;;;46.60;;
6566;SDS011;3317;43.994;22.878;2023-01-01T07:19:44;75.67;;;45.87;;
6566;SDS011;3317;43.994;22.878;2023-01-01T07:22:11;70.10;;;43.87;;
6566;SDS011;3317;43.994;22.878;2023-01-01T07:24:38;72.40;;;44.17;;
6566;SDS011;3317;43.994;22.878;2023-01-01T07:27:07;71.67;;;44.70;;
6566;SDS011;3317;43.994;22.878;2023-01-01T07:29:33;72.47;;;43.20;;
6566;SDS011;3317;43.994;22.878;2023-01-01T07:32:00;71.53;;;42.77;;
6566;SDS011;3317;43.994;22.878;2023-01-01T07:34:28;66.70;;;42.37;;
6566;SDS011;3317;43.994;22.878;2023-01-01T07:36:55;68.73;;;43.87;;
6566;SDS011;3317;43.994;22.878;2023-01-01T07:39:22;67.90;;;41.97;;
6566;SDS011;3317;43.994;22.878;2023-01-01T07:41:49;74.37;;;43.43;;
6566;SDS011;3317;43.994;22.878;2023-01-01T07:44:17;75.23;;;45.87;;
6566;SDS011;3317;43.994;22.878;2023-01-01T07:46:44;73.20;;;45.20;;
6566;SDS011;3317;43.994;22.878;2023-01-01T07:49:11;70.00;;;42.77;;
6566;SDS011;3317;43.994;22.878;2023-01-01T07:51:38;70.07;;;44.17;;
6566;SDS011;3317;43.994;22.878;2023-01-01T07:54:04;67.73;;;43.47;;
6566;SDS011;3317;43.994;22.878;2023-01-01T07:56:32;70.30;;;43.63;;
6566;SDS011;3317;43.994;22.878;2023-01-01T07:58:59;71.20;;;45.50;;
6566;SDS011;3317;43.994;22.878;2023-01-01T08:01:28;77.63;;;46.63;;
6566;SDS011;3317;43.994;22.878;2023-01-01T08:03:54;77.50;;;47.73;;
6566;SDS011;3317;43.994;22.878;2023-01-01T08:06:21;83.17;;;50.60;;
6566;SDS011;3317;43.994;22.878;2023-01-01T08:08:48;78.03;;;47.40;;
6566;SDS011;3317;43.994;22.878;2023-01-01T08:11:15;82.40;;;49.93;;
6566;SDS011;3317;43.994;22.878;2023-01-01T08:13:42;94.97;;;54.93;;
6566;SDS011;3317;43.994;22.878;2023-01-01T08:16:09;82.23;;;50.60;;
6566;SDS011;3317;43.994;22.878;2023-01-01T08:18:38;94.77;;;54.50;;
6566;SDS011;3317;43.994;22.878;2023-01-01T08:21:05;90.10;;;53.87;;
6566;SDS011;3317;43.994;22.878;2023-01-01T08:23:32;96.83;;;57.90;;
6566;SDS011;3317;43.994;22.878;2023-01-01T08:25:59;86.90;;;51.37;;
6566;SDS011;3317;43.994;22.878;2023-01-01T08:28:28;112.13;;;61.40;;
6566;SDS011;3317;43.994;22.878;2023-01-01T08:30:55;100.47;;;57.47;;
6566;SDS011;3317;43.994;22.878;2023-01-01T08:33:23;112.37;;;59.20;;
6566;SDS011;3317;43.994;22.878;2023-01-01T08:35:51;112.67;;;59.20;;
6566;SDS011;3317;43.994;22.878;2023-01-01T08:38:18;90.87;;;50.03;;
6566;SDS011;3317;43.994;22.878;2023-01-01T08:40:45;95.20;;;53.23;;
6566;SDS011;3317;43.994;22.878;2023-01-01T08:43:12;86.73;;;51.70;;
6566;SDS011;3317;43.994;22.878;2023-01-01T08:45:39;85.63;;;51.37;;
6566;SDS011;3317;43.994;22.878;2023-01-01T08:48:06;100.47;;;57.83;;
6566;SDS011;3317;43.994;22.878;2023-01-01T08:50:33;115.70;;;64.13;;
6566;SDS011;3317;43.994;22.878;2023-01-01T08:53:01;90.60;;;53.53;;
6566;SDS011;3317;43.994;22.878;2023-01-01T08:55:29;94.77;;;56.30;;
6566;SDS011;3317;43.994;22.878;2023-01-01T08:57:56;84.10;;;51.00;;
6566;SDS011;3317;43.994;22.878;2023-01-01T09:00:23;66.33;;;41.03;;
6566;SDS011;3317;43.994;22.878;2023-01-01T09:02:50;62.53;;;39.43;;
6566;SDS011;3317;43.994;22.878;2023-01-01T09:05:17;55.87;;;33.17;;
6566;SDS011;3317;43.994;22.878;2023-01-01T09:07:43;49.63;;;33.10;;
6566;SDS011;3317;43.994;22.878;2023-01-01T09:10:12;55.70;;;35.10;;
6566;SDS011;3317;43.994;22.878;2023-01-01T09:12:39;62.53;;;39.23;;
6566;SDS011;3317;43.994;22.878;2023-01-01T09:15:08;74.40;;;43.30;;
6566;SDS011;3317;43.994;22.878;2023-01-01T09:17:39;74.00;;;45.40;;
6566;SDS011;3317;43.994;22.878;2023-01-01T09:20:06;78.60;;;46.60;;
6566;SDS011;3317;43.994;22.878;2023-01-01T09:22:34;76.50;;;47.20;;
6566;SDS011;3317;43.994;22.878;2023-01-01T09:25:01;61.43;;;39.50;;
6566;SDS011;3317;43.994;22.878;2023-01-01T09:27:29;63.27;;;41.10;;
6566;SDS011;3317;43.994;22.878;2023-01-01T09:29:56;58.17;;;38.03;;
6566;SDS011;3317;43.994;22.878;2023-01-01T09:32:23;51.73;;;34.30;;
6566;SDS011;3317;43.994;22.878;2023-01-01T09:34:50;50.40;;;34.50;;
6566;SDS011;3317;43.994;22.878;2023-01-01T09:37:17;44.97;;;28.20;;
6566;SDS011;3317;43.994;22.878;2023-01-01T09:39:44;41.90;;;26.90;;
6566;SDS011;3317;43.994;22.878;2023-01-01T09:42:22;40.10;;;26.20;;
6566;SDS011;3317;43.994;22.878;2023-01-01T09:45:03;38.43;;;25.03;;
6566;SDS011;3317;43.994;22.878;2023-01-01T09:47:40;41.70;;;24.27;;
6566;SDS011;3317;43.994;22.878;2023-01-01T09:50:11;36.70;;;22.87;;
6566;SDS011;3317;43.994;22.878;2023-01-01T09:52:42;38.30;;;24.90;;
6566;SDS011;3317;43.994;22.878;2023-01-01T09:55:20;34.23;;;23.93;;
6566;SDS011;3317;43.994;22.878;2023-01-01T09:57:51;36.40;;;23.33;;
6566;SDS011;3317;43.994;22.878;2023-01-01T10:00:19;42.67;;;26.27;;
6566;SDS011;3317;43.994;22.878;2023-01-01T10:02:55;39.27;;;25.70;;
6566;SDS011;3317;43.994;22.878;2023-01-01T10:05:31;39.97;;;25.23;;
6566;SDS011;3317;43.994;22.878;2023-01-01T10:08:06;40.97;;;25.73;;
6566;SDS011;3317;43.994;22.878;2023-01-01T10:10:43;36.07;;;21.63;;
6566;SDS011;3317;43.994;22.878;2023-01-01T10:13:18;41.33;;;23.63;;
6566;SDS011;3317;43.994;22.878;2023-01-01T10:15:53;38.70;;;25.60;;
6566;SDS011;3317;43.994;22.878;2023-01-01T10:18:24;45.03;;;25.97;;
6566;SDS011;3317;43.994;22.878;2023-01-01T10:20:58;33.80;;;24.30;;
6566;SDS011;3317;43.994;22.878;2023-01-01T10:23:32;40.67;;;25.30;;
6566;SDS011;3317;43.994;22.878;2023-01-01T10:26:07;35.97;;;23.33;;
6566;SDS011;3317;43.994;22.878;2023-01-01T10:28:39;35.23;;;22.63;;
6566;SDS011;3317;43.994;22.878;2023-01-01T10:31:18;34.10;;;21.90;;
6566;SDS011;3317;43.994;22.878;2023-01-01T10:33:50;34.90;;;23.60;;
6566;SDS011;3317;43.994;22.878;2023-01-01T10:36:17;39.63;;;23.27;;
6566;SDS011;3317;43.994;22.878;2023-01-01T10:38:45;35.90;;;23.10;;
6566;SDS011;3317;43.994;22.878;2023-01-01T10:41:14;31.27;;;19.80;;
6566;SDS011;3317;43.994;22.878;2023-01-01T10:43:41;33.20;;;20.50;;
6566;SDS011;3317;43.994;22.878;2023-01-01T10:46:10;28.70;;;18.50;;
6566;SDS011;3317;43.994;22.878;2023-01-01T10:48:42;31.37;;;18.77;;
6566;SDS011;3317;43.994;22.878;2023-01-01T10:51:29;27.50;;;18.43;;
6566;SDS011;3317;43.994;22.878;2023-01-01T10:53:56;28.33;;;18.00;;
6566;SDS011;3317;43.994;22.878;2023-01-01T10:56:23;25.80;;;17.13;;
6566;SDS011;3317;43.994;22.878;2023-01-01T10:58:53;23.87;;;16.77;;
6566;SDS011;3317;43.994;22.878;2023-01-01T11:01:23;20.60;;;14.60;;
6566;SDS011;3317;43.994;22.878;2023-01-01T11:03:56;22.30;;;15.40;;
6566;SDS011;3317;43.994;22.878;2023-01-01T11:06:25;21.20;;;14.87;;
6566;SDS011;3317;43.994;22.878;2023-01-01T11:08:55;23.10;;;15.73;;
6566;SDS011;3317;43.994;22.878;2023-01-01T11:11:25;19.60;;;13.67;;
6566;SDS011;3317;43.994;22.878;2023-01-01T11:13:54;19.53;;;12.60;;
6566;SDS011;3317;43.994;22.878;2023-01-01T11:16:24;17.33;;;12.90;;
6566;SDS011;3317;43.994;22.878;2023-01-01T11:18:59;17.23;;;11.90;;
6566;SDS011;3317;43.994;22.878;2023-01-01T11:21:29;17.33;;;12.03;;
6566;SDS011;3317;43.994;22.878;2023-01-01T11:24:10;20.07;;;13.83;;
6566;SDS011;3317;43.994;22.878;2023-01-01T11:26:44;15.87;;;11.23;;
6566;SDS011;3317;43.994;22.878;2023-01-01T11:29:25;17.17;;;11.50;;
6566;SDS011;3317;43.994;22.878;2023-01-01T11:31:53;14.37;;;9.73;;
6566;SDS011;3317;43.994;22.878;2023-01-01T11:34:27;17.27;;;11.03;;
6566;SDS011;3317;43.994;22.878;2023-01-01T11:37:17;19.77;;;12.63;;
6566;SDS011;3317;43.994;22.878;2023-01-01T11:39:49;19.70;;;13.87;;
6566;SDS011;3317;43.994;22.878;2023-01-01T11:42:20;24.37;;;15.70;;
6566;SDS011;3317;43.994;22.878;2023-01-01T11:44:50;22.60;;;15.00;;
6566;SDS011;3317;43.994;22.878;2023-01-01T11:47:21;21.77;;;14.27;;
6566;SDS011;3317;43.994;22.878;2023-01-01T11:49:56;20.90;;;14.33;;
6566;SDS011;3317;43.994;22.878;2023-01-01T11:52:31;20.47;;;13.97;;
6566;SDS011;3317;43.994;22.878;2023-01-01T11:55:03;19.87;;;13.50;;
6566;SDS011;3317;43.994;22.878;2023-01-01T11:57:42;16.37;;;12.30;;
6566;SDS011;3317;43.994;22.878;2023-01-01T12:00:16;20.03;;;13.10;;
6566;SDS011;3317;43.994;22.878;2023-01-01T12:02:46;17.07;;;12.27;;
6566;SDS011;3317;43.994;22.878;2023-01-01T12:05:18;16.40;;;11.50;;
6566;SDS011;3317;43.994;22.878;2023-01-01T12:07:47;17.90;;;12.70;;
6566;SDS011;3317;43.994;22.878;2023-01-01T12:10:17;21.17;;;13.47;;
6566;SDS011;3317;43.994;22.878;2023-01-01T12:12:49;20.23;;;12.70;;
6566;SDS011;3317;43.994;22.878;2023-01-01T12:15:23;20.17;;;12.40;;
6566;SDS011;3317;43.994;22.878;2023-01-01T12:17:57;20.07;;;12.73;;
6566;SDS011;3317;43.994;22.878;2023-01-01T12:20:31;21.10;;;13.70;;
6566;SDS011;3317;43.994;22.878;2023-01-01T12:23:03;21.27;;;13.10;;
6566;SDS011;3317;43.994;22.878;2023-01-01T12:25:31;23.23;;;14.67;;
6566;SDS011;3317;43.994;22.878;2023-01-01T12:28:05;20.00;;;13.73;;
6566;SDS011;3317;43.994;22.878;2023-01-01T12:30:43;23.10;;;14.60;;
6566;SDS011;3317;43.994;22.878;2023-01-01T12:33:37;20.83;;;14.03;;
6566;SDS011;3317;43.994;22.878;2023-01-01T12:36:20;21.17;;;14.77;;
6566;SDS011;3317;43.994;22.878;2023-01-01T12:39:18;20.43;;;14.60;;
6566;SDS011;3317;43.994;22.878;2023-01-01T12:42:11;25.53;;;16.40;;
6566;SDS011;3317;43.994;22.878;2023-01-01T12:44:47;22.67;;;15.30;;
6566;SDS011;3317;43.994;22.878;2023-01-01T12:47:31;26.27;;;16.77;;
6566;SDS011;3317;43.994;22.878;2023-01-01T12:50:09;26.03;;;16.43;;
6566;SDS011;3317;43.994;22.878;2023-01-01T12:52:50;25.60;;;16.20;;
6566;SDS011;3317;43.994;22.878;2023-01-01T12:58:30;26.27;;;17.83;;
6566;SDS011;3317;43.994;22.878;2023-01-01T13:01:03;33.50;;;19.97;;
6566;SDS011;3317;43.994;22.878;2023-01-01T13:03:35;31.33;;;18.93;;
6566;SDS011;3317;43.994;22.878;2023-01-01T13:06:12;26.70;;;17.20;;
6566;SDS011;3317;43.994;22.878;2023-01-01T13:08:43;25.20;;;15.87;;
6566;SDS011;3317;43.994;22.878;2023-01-01T13:11:15;28.20;;;18.40;;
6566;SDS011;3317;43.994;22.878;2023-01-01T13:13:43;25.10;;;17.70;;
6566;SDS011;3317;43.994;22.878;2023-01-01T13:16:10;27.70;;;17.20;;
6566;SDS011;3317;43.994;22.878;2023-01-01T13:18:38;27.23;;;18.20;;
6566;SDS011;3317;43.994;22.878;2023-01-01T13:21:06;24.67;;;16.27;;
6566;SDS011;3317;43.994;22.878;2023-01-01T13:23:51;24.37;;;16.77;;
6566;SDS011;3317;43.994;22.878;2023-01-01T13:29:36;29.17;;;20.40;;
6566;SDS011;3317;43.994;22.878;2023-01-01T13:32:10;32.20;;;19.80;;
6566;SDS011;3317;43.994;22.878;2023-01-01T13:34:43;26.80;;;18.50;;
6566;SDS011;3317;43.994;22.878;2023-01-01T13:43:27;39.37;;;23.00;;
6566;SDS011;3317;43.994;22.878;2023-01-01T13:46:00;40.70;;;22.70;;
6566;SDS011;3317;43.994;22.878;2023-01-01T13:51:35;28.33;;;17.27;;
6566;SDS011;3317;43.994;22.878;2023-01-01T13:57:26;25.30;;;16.33;;
6566;SDS011;3317;43.994;22.878;2023-01-01T14:00:14;24.73;;;15.90;;
6566;SDS011;3317;43.994;22.878;2023-01-01T14:02:45;31.60;;;18.03;;
6566;SDS011;3317;43.994;22.878;2023-01-01T14:05:17;24.63;;;17.60;;
6566;SDS011;3317;43.994;22.878;2023-01-01T14:07:51;24.90;;;18.40;;
6566;SDS011;3317;43.994;22.878;2023-01-01T14:10:21;38.20;;;28.70;;
6566;SDS011;3317;43.994;22.878;2023-01-01T14:12:53;33.50;;;29.00;;
6566;SDS011;3317;43.994;22.878;2023-01-01T14:15:23;33.70;;;21.63;;
6566;SDS011;3317;43.994;22.878;2023-01-01T14:17:53;29.00;;;20.20;;
6566;SDS011;3317;43.994;22.878;2023-01-01T14:20:26;28.03;;;17.90;;
6566;SDS011;3317;43.994;22.878;2023-01-01T14:22:57;30.33;;;18.93;;
6566;SDS011;3317;43.994;22.878;2023-01-01T14:25:31;30.80;;;18.53;;
6566;SDS011;3317;43.994;22.878;2023-01-01T14:27:59;35.17;;;21.37;;
6566;SDS011;3317;43.994;22.878;2023-01-01T14:30:28;41.43;;;27.07;;
6566;SDS011;3317;43.994;22.878;2023-01-01T14:32:58;47.50;;;26.07;;
6566;SDS011;3317;43.994;22.878;2023-01-01T14:35:26;41.43;;;27.67;;
6566;SDS011;3317;43.994;22.878;2023-01-01T14:37:54;45.10;;;27.50;;
6566;SDS011;3317;43.994;22.878;2023-01-01T14:40:22;32.63;;;20.30;;
6566;SDS011;3317;43.994;22.878;2023-01-01T14:42:55;39.27;;;24.70;;
6566;SDS011;3317;43.994;22.878;2023-01-01T14:45:26;71.47;;;37.17;;
6566;SDS011;3317;43.994;22.878;2023-01-01T14:47:55;34.07;;;20.87;;
6566;SDS011;3317;43.994;22.878;2023-01-01T14:50:26;37.20;;;23.63;;
6566;SDS011;3317;43.994;22.878;2023-01-01T14:52:56;47.73;;;29.57;;
6566;SDS011;3317;43.994;22.878;2023-01-01T14:55:31;44.97;;;26.17;;
6566;SDS011;3317;43.994;22.878;2023-01-01T14:58:03;38.00;;;27.10;;
6566;SDS011;3317;43.994;22.878;2023-01-01T15:00:32;32.13;;;24.50;;
6566;SDS011;3317;43.994;22.878;2023-01-01T15:03:09;37.53;;;24.87;;
6566;SDS011;3317;43.994;22.878;2023-01-01T15:05:38;39.23;;;22.83;;
6566;SDS011;3317;43.994;22.878;2023-01-01T15:08:16;46.83;;;28.10;;
6566;SDS011;3317;43.994;22.878;2023-01-01T15:10:45;42.07;;;25.77;;